Time;durP1;ratioP1;P1;durP2;ratioP2;P2;SDS_P1;SDS_P2;PMS_P1;PMS_P2;Temp;Humidity;BMP_temperature;BMP_pressure;BME280_temperature;BME280_humidity;BME280_pressure;Samples;Min_cycle;Max_cycle;Signal;HPM_P1;HPM_P2
2023/02/13 00:00:24;;;;;;;38.17;29.17;;;6.00;99.90;;;;;;4952946;28;20062;-87
2023/02/13 00:02:50;;;;;;;40.60;30.17;;;6.00;99.90;;;;;;4937088;29;20043;-88
2023/02/13 00:05:16;;;;;;;40.70;29.70;;;6.00;99.90;;;;;;4952507;28;20034;-88
2023/02/13 00:07:42;;;;;;;37.03;28.90;;;6.10;99.90;;;;;;4937726;28;20035;-88
2023/02/13 00:10:08;;;;;;;40.00;30.07;;;6.10;99.90;;;;;;4952552;29;20027;-88
2023/02/13 00:12:35;;;;;;;39.27;29.23;;;6.10;99.90;;;;;;4953569;29;20042;-88
2023/02/13 00:15:01;;;;;;;40.97;30.87;;;6.00;99.90;;;;;;4937045;29;20038;-88
2023/02/13 00:17:27;;;;;;;37.93;29.60;;;5.80;99.90;;;;;;4937034;28;20039;-88
2023/02/13 00:19:53;;;;;;;39.30;29.27;;;5.80;99.90;;;;;;4951589;28;20082;-88
2023/02/13 00:22:19;;;;;;;41.90;30.13;;;5.70;99.90;;;;;;4954157;28;20039;-88
2023/02/13 00:24:46;;;;;;;38.83;30.50;;;5.30;99.90;;;;;;4953179;29;20400;-88
2023/02/13 00:27:12;;;;;;;40.60;31.37;;;5.20;99.90;;;;;;4953160;29;20035;-88
2023/02/13 00:29:38;;;;;;;40.87;31.73;;;5.40;99.90;;;;;;4952064;29;20050;-88
2023/02/13 00:32:04;;;;;;;35.27;29.77;;;5.50;99.90;;;;;;4952630;28;20424;-89
2023/02/13 00:34:30;;;;;;;43.23;32.13;;;5.50;99.90;;;;;;4954449;28;20055;-88
2023/02/13 00:36:56;;;;;;;47.50;33.03;;;5.30;99.90;;;;;;4936154;29;20043;-89
2023/02/13 00:39:22;;;;;;;47.97;34.90;;;5.10;99.90;;;;;;4951266;29;20047;-88
2023/02/13 00:41:48;;;;;;;49.00;33.17;;;5.10;99.90;;;;;;4945879;28;20049;-88
2023/02/13 00:44:14;;;;;;;46.70;32.93;;;5.30;99.90;;;;;;4959996;28;20031;-88
2023/02/13 00:46:41;;;;;;;41.30;31.77;;;5.40;99.90;;;;;;4952618;28;20051;-88
2023/02/13 00:49:07;;;;;;;46.37;31.97;;;5.50;99.90;;;;;;4936365;29;20047;-88
2023/02/13 00:51:33;;;;;;;45.50;33.40;;;5.50;99.90;;;;;;4951485;29;20035;-88
2023/02/13 00:54:00;;;;;;;44.10;33.20;;;5.60;99.90;;;;;;4921230;29;20511;-87
2023/02/13 00:56:26;;;;;;;41.17;31.77;;;5.50;99.90;;;;;;4957110;28;20247;-87
2023/02/13 00:58:52;;;;;;;45.13;32.43;;;5.50;99.90;;;;;;4939857;29;20031;-87
2023/02/13 01:01:18;;;;;;;47.53;32.60;;;5.50;99.90;;;;;;4939398;29;20055;-87
2023/02/13 01:03:44;;;;;;;43.87;32.00;;;5.50;99.90;;;;;;4955620;28;20035;-87
2023/02/13 01:06:10;;;;;;;41.90;31.60;;;5.40;99.90;;;;;;4954590;29;20047;-88
2023/02/13 01:08:40;;;;;;;45.93;32.87;;;5.40;99.90;;;;;;4939654;29;20043;-88
2023/02/13 01:11:06;;;;;;;46.40;32.90;;;5.40;99.90;;;;;;4953484;29;20043;-87
2023/02/13 01:13:32;;;;;;;40.87;31.97;;;5.40;99.90;;;;;;4940659;29;20042;-88
2023/02/13 01:15:58;;;;;;;43.87;32.43;;;5.30;99.90;;;;;;4941733;28;20040;-88
2023/02/13 01:18:24;;;;;;;42.97;31.90;;;5.40;99.90;;;;;;4940024;29;20412;-88
2023/02/13 01:21:02;;;;;;;44.27;31.07;;;5.30;99.90;;;;;;4937142;28;20046;-88
2023/02/13 01:23:30;;;;;;;44.20;31.00;;;5.30;99.90;;;;;;4939609;29;20027;-87
2023/02/13 01:25:56;;;;;;;37.10;29.33;;;5.30;99.90;;;;;;4954359;29;20115;-89
2023/02/13 01:28:22;;;;;;;42.53;30.87;;;5.20;99.90;;;;;;4943586;28;20386;-87
2023/02/13 01:30:52;;;;;;;42.83;30.77;;;5.10;99.90;;;;;;4951044;28;20047;-87
2023/02/13 01:33:19;;;;;;;40.35;31.17;;;4.90;99.90;;;;;;4939992;29;20028;-87
2023/02/13 01:35:45;;;;;;;42.43;30.53;;;4.70;99.90;;;;;;4955140;29;20358;-88
2023/02/13 01:38:11;;;;;;;37.53;29.13;;;4.90;99.90;;;;;;4956524;29;20042;-88
2023/02/13 01:40:46;;;;;;;42.67;29.93;;;4.80;99.90;;;;;;4955129;29;20612;-87
2023/02/13 01:43:12;;;;;;;40.00;29.60;;;4.80;99.90;;;;;;4955825;28;20030;-90
2023/02/13 01:45:38;;;;;;;42.83;30.17;;;4.90;99.90;;;;;;4923447;29;20030;-89
2023/02/13 01:48:06;;;;;;;41.37;30.17;;;4.90;99.90;;;;;;4955535;29;20031;-88
2023/02/13 01:50:38;;;;;;;39.00;29.60;;;5.00;99.90;;;;;;4949849;29;20027;-88
2023/02/13 01:53:19;;;;;;;40.53;29.97;;;4.90;99.90;;;;;;4951349;28;20043;-88
2023/02/13 01:55:48;;;;;;;47.47;31.85;;;4.60;99.90;;;;;;4955802;29;20469;-89
2023/02/13 01:58:17;;;;;;;43.37;31.90;;;4.40;99.90;;;;;;4971365;28;20042;-89
2023/02/13 02:00:48;;;;;;;41.27;30.30;;;4.40;99.90;;;;;;4955073;28;20047;-89
2023/02/13 02:03:26;;;;;;;41.70;31.00;;;4.10;99.90;;;;;;4954897;28;20035;-89
2023/02/13 02:05:52;;;;;;;41.27;31.13;;;3.90;99.90;;;;;;4970782;28;20039;-89
2023/02/13 02:08:18;;;;;;;41.20;29.80;;;4.10;99.90;;;;;;4940295;29;20058;-89
2023/02/13 02:10:44;;;;;;;45.83;31.43;;;4.20;99.90;;;;;;4939587;29;20062;-89
2023/02/13 02:13:12;;;;;;;44.67;30.40;;;4.40;99.90;;;;;;4955401;28;20031;-88
2023/02/13 02:15:38;;;;;;;41.93;31.00;;;4.40;99.90;;;;;;4952123;28;20039;-89
2023/02/13 02:18:30;;;;;;;45.20;30.93;;;4.50;99.90;;;;;;4955376;28;20039;-89
2023/02/13 02:21:09;;;;;;;39.73;30.10;;;4.50;99.90;;;;;;4940844;29;20046;-88
2023/02/13 02:23:47;;;;;;;42.00;31.20;;;4.50;99.90;;;;;;4957787;29;20034;-87
2023/02/13 02:27:04;;;;;;;42.43;31.97;;;4.50;99.90;;;;;;4957360;28;20388;-88
2023/02/13 02:29:48;;;;;;;46.93;32.07;;;4.50;99.90;;;;;;4916645;29;20047;-88
2023/02/13 02:32:26;;;;;;;42.00;31.23;;;4.50;99.90;;;;;;4910386;29;20184;-89
2023/02/13 02:35:17;;;;;;;43.77;31.70;;;4.50;99.90;;;;;;4887643;29;20063;-88
2023/02/13 02:37:57;;;;;;;;;;;4.50;99.90;;;;;;4904731;29;20020;-87
2023/02/13 02:40:23;;;;;;;40.53;29.80;;;4.50;99.90;;;;;;4911782;29;20384;-88
2023/02/13 02:43:07;;;;;;;44.00;32.77;;;4.50;99.90;;;;;;4915228;29;20040;-88
2023/02/13 02:45:53;;;;;;;43.53;30.27;;;4.40;99.90;;;;;;4914522;28;20087;-88
2023/02/13 02:51:16;;;;;;;43.88;30.98;;;4.20;99.90;;;;;;4914229;29;20055;-88
2023/02/13 02:56:55;;;;;;;42.47;30.75;;;4.30;99.90;;;;;;4917959;29;20136;-88
2023/02/13 03:07:36;;;;;;;47.57;32.17;;;4.10;99.90;;;;;;4940202;29;20046;-87
2023/02/13 03:13:32;;;;;;;43.33;31.45;;;4.00;99.90;;;;;;4921397;29;20051;-87
2023/02/13 03:22:20;;;;;;;40.63;30.73;;;3.90;99.90;;;;;;4957536;28;20745;-87
2023/02/13 03:25:17;;;;;;;40.47;29.23;;;3.80;99.90;;;;;;4935055;29;20348;-86
2023/02/13 03:31:01;;;;;;;39.97;29.60;;;3.90;99.90;;;;;;4948169;28;20061;-88
2023/02/13 03:33:48;;;;;;;41.90;29.20;;;4.00;99.90;;;;;;4953686;29;20031;-87
2023/02/13 03:39:15;;;;;;;46.90;31.47;;;4.00;99.90;;;;;;4959822;28;20038;-87
2023/02/13 03:41:59;;;;;;;46.57;31.50;;;3.90;99.90;;;;;;4938379;29;20035;-87
2023/02/13 03:44:40;;;;;;;44.00;31.20;;;3.90;99.90;;;;;;4923412;28;20393;-87
2023/02/13 03:47:06;;;;;;;48.35;31.30;;;3.90;99.90;;;;;;4932786;29;20051;-87
2023/02/13 03:52:31;;;;;;;49.27;31.30;;;3.90;99.90;;;;;;4973222;28;20046;-88
2023/02/13 04:01:00;;;;;;;64.90;31.23;;;3.70;99.90;;;;;;4957748;28;20677;-87
2023/02/13 04:03:45;;;;;;;55.97;29.83;;;3.70;99.90;;;;;;4954177;29;20023;-88
2023/02/13 04:06:20;;;;;;;95.87;32.20;;;3.70;99.90;;;;;;4936738;29;20035;-87
2023/02/13 04:08:46;;;;;;;57.87;28.80;;;3.50;99.90;;;;;;4957550;28;20476;-87
2023/02/13 04:11:31;;;;;;;189.10;35.23;;;3.30;99.90;;;;;;4957723;29;20027;-87
2023/02/13 04:13:58;;;;;;;128.77;29.60;;;3.30;99.90;;;;;;4953991;29;20027;-88
2023/02/13 04:16:38;;;;;;;68.23;27.33;;;3.20;99.90;;;;;;4959261;29;20035;-88
2023/02/13 04:19:05;;;;;;;52.90;25.10;;;2.60;99.90;;;;;;4944851;28;20047;-88
2023/02/13 04:21:35;;;;;;;52.83;24.87;;;2.20;99.90;;;;;;4959281;28;20039;-88
2023/02/13 04:24:01;;;;;;;44.13;22.53;;;2.10;99.90;;;;;;4946964;28;20035;-88
2023/02/13 04:26:40;;;;;;;40.90;23.30;;;1.90;99.90;;;;;;4963741;28;20039;-87
2023/02/13 04:29:07;;;;;;;47.33;24.10;;;1.70;99.90;;;;;;4950397;28;20479;-88
2023/02/13 04:31:33;;;;;;;124.77;27.03;;;1.70;99.90;;;;;;4983294;28;20035;-87
2023/02/13 04:33:59;;;;;;;59.10;26.03;;;1.70;99.90;;;;;;4967597;28;20038;-88
2023/02/13 04:36:25;;;;;;;126.37;28.57;;;1.90;99.90;;;;;;4967496;28;20045;-88
2023/02/13 04:38:51;;;;;;;40.17;26.93;;;2.10;99.90;;;;;;4951319;28;20045;-89
2023/02/13 04:41:18;;;;;;;75.87;26.37;;;2.10;99.90;;;;;;4965334;28;20050;-88
2023/02/13 04:43:44;;;;;;;95.83;28.10;;;2.30;99.90;;;;;;4951616;28;20049;-88
2023/02/13 04:46:11;;;;;;;51.53;27.30;;;2.10;99.90;;;;;;4949884;28;20035;-88
2023/02/13 04:48:37;;;;;;;132.47;28.47;;;2.00;99.90;;;;;;4985054;28;20033;-88
2023/02/13 04:51:03;;;;;;;63.70;25.93;;;1.90;99.90;;;;;;4968981;28;20046;-87
2023/02/13 04:53:29;;;;;;;99.77;28.13;;;1.80;99.90;;;;;;4978413;28;20035;-87
2023/02/13 04:55:56;;;;;;;46.63;25.07;;;1.70;99.90;;;;;;4960295;28;20046;-87
2023/02/13 04:58:22;;;;;;;60.97;26.80;;;1.70;99.90;;;;;;4943900;28;20030;-88
2023/02/13 05:00:48;;;;;;;82.80;26.93;;;1.60;99.90;;;;;;4942254;28;20051;-88
2023/02/13 05:03:14;;;;;;;234.47;33.77;;;1.70;99.90;;;;;;4958821;28;20083;-89
2023/02/13 05:05:40;;;;;;;163.97;31.57;;;1.70;99.90;;;;;;4959971;28;20495;-88
2023/02/13 05:08:07;;;;;;;87.43;29.37;;;2.10;99.90;;;;;;4959335;28;20046;-87
2023/02/13 05:10:33;;;;;;;50.83;28.17;;;2.20;99.90;;;;;;4959837;28;20039;-88
2023/02/13 05:13:00;;;;;;;42.03;29.17;;;2.40;99.90;;;;;;4945549;28;20057;-88
2023/02/13 05:15:26;;;;;;;82.17;29.73;;;2.40;99.90;;;;;;4928462;28;20034;-88
2023/02/13 05:17:52;;;;;;;137.87;32.33;;;2.40;99.90;;;;;;4945423;28;20039;-88
2023/02/13 05:20:18;;;;;;;42.20;25.23;;;2.60;99.90;;;;;;4929386;28;20476;-88
2023/02/13 05:25:30;;;;;;;100.47;27.67;;;2.60;99.90;;;;;;4952320;28;20042;-89
2023/02/13 05:27:56;;;;;;;53.63;25.97;;;2.80;99.90;;;;;;4946664;28;20038;-89
2023/02/13 05:30:22;;;;;;;54.83;24.90;;;2.90;99.90;;;;;;4983920;28;20046;-92
2023/02/13 05:32:50;;;;;;;70.03;24.40;;;2.50;99.90;;;;;;4965991;28;20014;-92
2023/02/13 05:35:20;;;;;;;82.20;25.07;;;2.20;99.90;;;;;;4978916;28;20038;-89
2023/02/13 05:37:46;;;;;;;56.53;23.37;;;2.10;99.90;;;;;;4982096;28;20384;-91
2023/02/13 05:40:13;;;;;;;54.17;22.10;;;2.10;99.90;;;;;;4982759;28;20042;-91
2023/02/13 05:42:40;;;;;;;66.47;22.57;;;1.80;99.90;;;;;;4979448;28;20408;-92
2023/02/13 05:45:06;;;;;;;137.83;26.37;;;1.60;99.90;;;;;;4963563;28;20049;-90
2023/02/13 05:47:32;;;;;;;64.00;24.53;;;1.50;99.90;;;;;;4963929;28;20035;-91
2023/02/13 05:49:58;;;;;;;36.47;20.37;;;1.40;99.90;;;;;;4963039;28;20022;-91
2023/02/13 05:52:24;;;;;;;47.90;22.17;;;1.30;99.90;;;;;;4980683;28;20042;-90
2023/02/13 05:54:51;;;;;;;78.23;24.37;;;1.10;99.90;;;;;;4946872;28;20034;-91
2023/02/13 05:57:17;;;;;;;85.53;24.80;;;1.00;99.90;;;;;;4980611;28;20500;-92
2023/02/13 05:59:43;;;;;;;36.73;18.87;;;1.10;99.90;;;;;;4964831;28;20031;-91
2023/02/13 06:02:09;;;;;;;113.67;26.60;;;1.00;99.90;;;;;;4962812;28;20058;-92
2023/02/13 06:04:35;;;;;;;67.97;22.67;;;1.00;99.90;;;;;;4962961;28;20042;-91
2023/02/13 06:07:01;;;;;;;49.77;24.03;;;0.90;99.90;;;;;;4958637;28;20043;-91
2023/02/13 06:09:27;;;;;;;50.40;25.17;;;0.90;99.90;;;;;;4974529;28;20099;-90
2023/02/13 06:11:54;;;;;;;87.37;27.20;;;0.90;99.90;;;;;;4930647;28;20058;-89
2023/02/13 06:14:20;;;;;;;62.67;27.13;;;0.90;99.90;;;;;;4979799;28;20031;-91
2023/02/13 06:16:46;;;;;;;42.87;24.53;;;1.00;99.90;;;;;;4979571;28;20067;-91
2023/02/13 06:19:12;;;;;;;41.10;24.13;;;1.00;99.90;;;;;;4978553;28;20037;-91
2023/02/13 06:21:38;;;;;;;41.33;26.50;;;0.90;99.90;;;;;;4977370;28;20392;-90
2023/02/13 06:24:04;;;;;;;38.77;26.57;;;1.10;99.90;;;;;;4973410;28;20027;-93
2023/02/13 06:26:30;;;;;;;59.13;25.90;;;1.40;99.90;;;;;;4981979;28;20474;-91
2023/02/13 06:28:57;;;;;;;57.27;26.70;;;1.60;99.90;;;;;;4967168;28;20023;-91
2023/02/13 06:31:23;;;;;;;60.43;26.83;;;1.50;99.90;;;;;;4975342;28;20496;-91
2023/02/13 06:33:49;;;;;;;35.20;26.87;;;1.40;99.90;;;;;;4922510;28;20396;-92
2023/02/13 06:36:15;;;;;;;225.87;38.00;;;1.50;99.90;;;;;;4961650;28;20039;-92
2023/02/13 06:38:41;;;;;;;54.03;28.97;;;1.30;99.90;;;;;;4944387;28;20495;-92
2023/02/13 06:41:08;;;;;;;56.33;26.97;;;1.30;99.90;;;;;;4947404;28;20065;-91
2023/02/13 06:43:35;;;;;;;45.87;26.07;;;1.20;99.90;;;;;;4953460;29;20503;-91
2023/02/13 06:46:07;;;;;;;36.47;25.83;;;1.20;99.90;;;;;;4957752;28;20075;-90
2023/02/13 06:48:33;;;;;;;55.93;24.23;;;1.10;99.90;;;;;;4942109;29;20031;-91
2023/02/13 06:51:00;;;;;;;55.97;25.37;;;1.10;99.90;;;;;;4946158;28;20039;-90
2023/02/13 06:53:27;;;;;;;66.60;27.13;;;0.90;99.90;;;;;;4929632;28;20038;-91
2023/02/13 06:55:53;;;;;;;55.47;23.77;;;0.90;99.90;;;;;;4945831;28;20030;-92
2023/02/13 06:58:20;;;;;;;46.40;27.10;;;0.90;99.90;;;;;;4977981;28;20055;-91
2023/02/13 07:00:46;;;;;;;35.00;22.93;;;0.90;99.90;;;;;;4976658;28;20047;-91
2023/02/13 07:03:12;;;;;;;85.17;27.77;;;0.90;99.90;;;;;;4979699;28;20038;-92
2023/02/13 07:05:40;;;;;;;49.77;26.67;;;0.80;99.90;;;;;;4943412;28;20035;-89
2023/02/13 07:08:07;;;;;;;36.47;28.17;;;0.90;99.90;;;;;;4926409;29;20092;-93
2023/02/13 07:10:38;;;;;;;48.57;28.60;;;1.00;99.90;;;;;;4946131;28;20037;-91
2023/02/13 07:13:04;;;;;;;41.75;29.23;;;1.10;99.90;;;;;;4957931;28;20057;-91
2023/02/13 07:15:31;;;;;;;43.73;30.87;;;1.20;99.90;;;;;;4940379;28;20035;-92
2023/02/13 07:17:57;;;;;;;41.33;28.50;;;1.10;99.90;;;;;;4975302;28;20038;-91
2023/02/13 07:20:24;;;;;;;47.83;30.60;;;1.20;99.90;;;;;;4943847;28;20039;-92
2023/02/13 07:22:50;;;;;;;51.50;27.80;;;1.30;99.90;;;;;;4959277;28;20039;-91
2023/02/13 07:25:16;;;;;;;53.13;28.80;;;1.10;99.90;;;;;;4968625;28;20042;-91
2023/02/13 07:27:43;;;;;;;111.53;30.80;;;1.20;99.90;;;;;;4954938;28;20482;-88
2023/02/13 07:30:09;;;;;;;32.57;26.47;;;1.30;99.90;;;;;;4973686;28;20042;-91
2023/02/13 07:32:35;;;;;;;46.47;27.07;;;1.40;99.90;;;;;;4956627;28;20469;-91
2023/02/13 07:35:01;;;;;;;33.80;28.53;;;1.20;99.90;;;;;;4940276;28;20050;-90
2023/02/13 07:37:29;;;;;;;39.40;27.07;;;1.30;99.90;;;;;;4938124;28;20038;-89
2023/02/13 07:39:55;;;;;;;51.30;26.83;;;1.40;99.90;;;;;;4972223;28;20031;-89
2023/02/13 07:42:21;;;;;;;49.10;26.73;;;1.40;99.90;;;;;;4941254;28;20054;-92
2023/02/13 07:44:47;;;;;;;51.00;27.93;;;1.20;99.90;;;;;;4940579;28;20042;-88
2023/02/13 07:47:13;;;;;;;44.27;27.60;;;1.00;99.90;;;;;;4974243;28;20042;-89
2023/02/13 07:49:39;;;;;;;51.23;28.50;;;1.00;99.90;;;;;;4971351;28;20400;-89
2023/02/13 07:52:05;;;;;;;47.57;25.67;;;1.00;99.90;;;;;;4952029;28;20031;-88
2023/02/13 07:54:31;;;;;;;43.47;24.50;;;1.10;99.90;;;;;;4973245;28;20026;-87
2023/02/13 07:56:58;;;;;;;74.63;26.63;;;0.90;99.90;;;;;;4940556;28;20065;-90
2023/02/13 07:59:24;;;;;;;43.30;27.63;;;0.70;99.90;;;;;;4940552;28;20026;-90
2023/02/13 08:01:50;;;;;;;73.70;28.37;;;0.90;99.90;;;;;;4963969;28;20054;-88
2023/02/13 08:04:16;;;;;;;53.20;29.83;;;0.80;99.90;;;;;;4953602;28;20038;-90
2023/02/13 08:06:42;;;;;;;39.37;27.60;;;0.90;99.90;;;;;;4955771;28;20045;-85
2023/02/13 08:12:01;;;;;;;101.90;30.03;;;1.10;99.90;;;;;;4963127;28;20388;-87
2023/02/13 08:14:27;;;;;;;40.77;20.17;;;1.20;99.90;;;;;;4943498;28;20026;-92
2023/02/13 08:16:53;;;;;;;36.43;25.33;;;0.90;99.90;;;;;;4972613;28;20408;-85
2023/02/13 08:19:19;;;;;;;57.63;26.63;;;0.70;99.90;;;;;;4955240;28;20047;-85
2023/02/13 08:21:45;;;;;;;51.03;26.50;;;0.80;99.90;;;;;;4957728;28;20051;-86
2023/02/13 08:24:12;;;;;;;32.10;26.47;;;0.90;99.90;;;;;;4956522;28;20033;-85
2023/02/13 08:26:38;;;;;;;52.93;26.43;;;1.00;99.90;;;;;;4955756;28;20046;-89
2023/02/13 08:29:04;;;;;;;41.40;20.53;;;1.00;99.90;;;;;;4956746;28;20476;-85
2023/02/13 08:31:31;;;;;;;29.70;23.07;;;0.80;99.90;;;;;;4971735;28;20472;-87
2023/02/13 08:33:57;;;;;;;58.33;22.17;;;0.70;99.90;;;;;;4939434;28;20034;-89
2023/02/13 08:36:23;;;;;;;30.63;22.93;;;0.70;99.90;;;;;;4956134;28;20392;-89
2023/02/13 08:38:49;;;;;;;50.90;26.27;;;0.70;99.90;;;;;;4925202;28;20050;-87
2023/02/13 08:41:22;;;;;;;89.13;24.53;;;0.70;99.90;;;;;;4973769;28;20027;-89
2023/02/13 08:43:49;;;;;;;21.70;18.77;;;0.60;99.90;;;;;;4965515;28;20054;-85
2023/02/13 08:46:15;;;;;;;36.30;24.87;;;0.60;99.90;;;;;;4954068;28;20057;-85
2023/02/13 08:48:42;;;;;;;53.13;27.37;;;0.60;99.90;;;;;;4962867;28;20054;-86
2023/02/13 08:51:09;;;;;;;79.30;26.70;;;0.60;99.90;;;;;;4968426;28;20031;-86
2023/02/13 08:53:35;;;;;;;56.17;22.33;;;0.60;99.90;;;;;;4934959;28;20043;-89
2023/02/13 08:56:01;;;;;;;43.60;28.03;;;0.60;99.90;;;;;;4971936;28;20030;-87
2023/02/13 08:58:27;;;;;;;44.00;28.13;;;0.60;99.90;;;;;;4938753;28;20035;-88
2023/02/13 09:00:53;;;;;;;56.20;28.50;;;0.60;99.90;;;;;;4937529;28;20038;-88
2023/02/13 09:03:19;;;;;;;40.10;27.93;;;0.70;99.90;;;;;;4972907;28;20042;-87
2023/02/13 09:05:46;;;;;;;38.10;26.20;;;0.80;99.90;;;;;;4952859;28;20035;-84
2023/02/13 09:08:12;;;;;;;24.00;17.80;;;0.80;99.90;;;;;;4939442;28;20034;-89
2023/02/13 09:10:39;;;;;;;48.17;29.30;;;0.80;99.90;;;;;;4938412;28;20047;-92
2023/02/13 09:13:05;;;;;;;26.87;23.47;;;0.90;99.90;;;;;;4950129;28;20382;-87
2023/02/13 09:15:31;;;;;;;43.47;28.77;;;0.90;99.90;;;;;;4969918;28;20035;-88
2023/02/13 09:17:58;;;;;;;50.87;31.23;;;1.10;99.90;;;;;;4959179;28;20030;-87
2023/02/13 09:20:24;;;;;;;52.60;28.47;;;1.30;99.90;;;;;;4943712;28;20047;-95
2023/02/13 09:22:50;;;;;;;41.80;29.70;;;1.40;99.90;;;;;;4960826;28;20046;-92
2023/02/13 09:25:16;;;;;;;36.30;29.33;;;1.40;99.90;;;;;;4981189;28;20030;-93
2023/02/13 09:27:42;;;;;;;49.80;31.23;;;1.50;99.90;;;;;;4944813;28;20468;-88
2023/02/13 09:30:09;;;;;;;43.70;25.30;;;1.60;99.90;;;;;;4932633;28;20031;-87
2023/02/13 09:32:36;;;;;;;52.60;30.80;;;1.80;99.90;;;;;;4921621;28;20050;-86
2023/02/13 09:35:05;;;;;;;28.30;25.23;;;3.20;99.90;;;;;;4925114;28;20042;-87
2023/02/13 09:37:31;;;;;;;49.33;32.70;;;3.00;99.90;;;;;;4940448;28;20042;-88
2023/02/13 09:39:57;;;;;;;37.87;28.63;;;2.60;99.90;;;;;;4958299;28;20027;-88
2023/02/13 09:42:25;;;;;;;32.83;25.87;;;2.60;99.90;;;;;;4976717;28;20039;-89
2023/02/13 09:44:59;;;;;;;45.97;30.67;;;2.50;99.90;;;;;;4955815;28;20038;-90
2023/02/13 09:47:31;;;;;;;44.67;33.93;;;2.40;99.90;;;;;;4989006;28;20062;-89
2023/02/13 09:50:16;;;;;;;31.27;24.63;;;2.60;99.90;;;;;;4962566;28;20062;-94
2023/02/13 09:52:43;;;;;;;40.63;30.77;;;2.50;99.90;;;;;;4973165;28;20038;-89
2023/02/13 09:55:25;;;;;;;38.87;26.90;;;2.60;99.90;;;;;;4976407;28;20038;-91
2023/02/13 09:58:00;;;;;;;45.50;33.27;;;2.60;99.90;;;;;;4943857;28;20035;-89
2023/02/13 10:00:54;;;;;;;41.87;29.73;;;2.70;99.90;;;;;;4972201;28;20038;-90
2023/02/13 10:03:43;;;;;;;35.80;25.20;;;2.80;99.90;;;;;;4954610;28;20046;-88
2023/02/13 10:06:22;;;;;;;57.17;37.90;;;2.90;99.90;;;;;;4975744;28;20046;-88
2023/02/13 10:09:08;;;;;;;66.27;45.97;;;3.10;99.90;;;;;;4974184;28;20030;-89
2023/02/13 10:11:46;;;;;;;47.40;38.57;;;3.40;99.90;;;;;;4939517;28;20043;-92
2023/02/13 10:14:31;;;;;;;41.50;32.90;;;4.40;99.90;;;;;;4976041;28;20034;-82
2023/02/13 10:17:05;;;;;;;48.53;39.80;;;4.10;99.90;;;;;;4920627;28;20039;-84
2023/02/13 10:19:36;;;;;;;49.30;40.37;;;4.00;99.90;;;;;;4933844;28;20039;-83
2023/02/13 10:22:19;;;;;;;46.38;38.50;;;4.20;99.90;;;;;;4976431;28;20046;-85
2023/02/13 10:24:56;;;;;;;53.73;44.90;;;4.20;99.90;;;;;;4958761;28;20034;-83
2023/02/13 10:27:27;;;;;;;50.57;42.27;;;4.30;99.90;;;;;;4925195;28;20053;-83
2023/02/13 10:30:22;;;;;;;49.53;36.38;;;4.40;99.90;;;;;;4942070;28;20030;-86
2023/02/13 10:36:06;;;;;;;54.03;45.70;;;4.50;99.90;;;;;;4968011;28;20046;-86
2023/02/13 10:38:33;;;;;;;49.53;41.83;;;4.90;99.90;;;;;;4978068;28;20038;-87
2023/02/13 10:41:04;;;;;;;45.13;34.40;;;5.10;99.90;;;;;;4963297;28;20039;-87
2023/02/13 10:43:49;;;;;;;54.03;36.47;;;5.50;99.90;;;;;;4949586;28;20054;-92
2023/02/13 10:46:42;;;;;;;44.27;33.00;;;5.50;99.90;;;;;;4970353;28;20026;-93
2023/02/13 10:49:29;;;;;;;44.63;33.57;;;5.70;99.90;;;;;;4950989;28;20035;-83
2023/02/13 10:52:15;;;;;;;40.37;31.33;;;5.70;99.90;;;;;;4971072;28;20584;-83
2023/02/13 10:55:18;;;;;;;45.37;35.87;;;5.80;99.90;;;;;;4970542;28;20511;-83
2023/02/13 10:58:12;;;;;;;40.73;32.93;;;6.00;99.90;;;;;;4973338;28;20031;-86
2023/02/13 11:00:56;;;;;;;44.17;34.90;;;6.30;99.90;;;;;;4963998;28;20035;-88
2023/02/13 11:03:24;;;;;;;40.70;32.17;;;6.50;99.90;;;;;;4942004;28;20381;-86
2023/02/13 11:05:50;;;;;;;39.90;31.67;;;6.60;99.90;;;;;;4946971;28;20043;-87
2023/02/13 11:08:25;;;;;;;46.07;34.43;;;6.60;99.90;;;;;;4958168;28;20034;-87
2023/02/13 11:10:51;;;;;;;38.47;30.80;;;6.60;99.90;;;;;;4950147;28;20030;-89
2023/02/13 11:13:22;;;;;;;52.05;35.13;;;6.70;99.90;;;;;;4940060;28;20510;-86
2023/02/13 11:15:56;;;;;;;49.50;38.08;;;6.80;99.90;;;;;;4955983;28;20050;-87
2023/02/13 11:18:25;;;;;;;50.00;38.88;;;7.00;99.90;;;;;;4942989;28;20027;-88
2023/02/13 11:21:04;;;;;;;48.25;35.85;;;7.20;99.90;;;;;;4947638;28;20392;-88
2023/02/13 11:23:30;;;;;;;46.65;37.22;;;7.40;99.90;;;;;;4955242;28;20043;-87
2023/02/13 11:26:07;;;;;;;44.03;36.25;;;7.70;99.90;;;;;;4972356;28;20041;-84
2023/02/13 11:28:46;;;;;;;44.20;36.00;;;8.00;99.90;;;;;;4964910;28;20023;-87
2023/02/13 11:31:24;;;;;;;45.65;36.47;;;8.10;99.90;;;;;;4923133;28;20428;-86
2023/02/13 11:33:50;;;;;;;47.03;36.80;;;8.20;99.90;;;;;;4954379;28;20027;-86
2023/02/13 11:36:30;;;;;;;47.70;39.05;;;8.30;99.90;;;;;;4939898;28;20038;-87
2023/02/13 11:39:16;;;;;;;51.22;40.15;;;8.40;99.90;;;;;;4952721;28;20682;-89
2023/02/13 11:41:43;;;;;;;43.35;34.05;;;8.60;99.90;;;;;;4957554;28;20037;-87
2023/02/13 11:44:27;;;;;;;44.90;34.65;;;8.80;99.90;;;;;;4953322;28;20046;-85
2023/02/13 11:46:54;;;;;;;44.85;37.10;;;9.00;99.90;;;;;;4922665;28;20038;-86
2023/02/13 11:49:24;;;;;;;45.45;36.70;;;9.00;99.90;;;;;;4939973;28;20031;-87
2023/02/13 11:51:55;;;;;;;47.97;39.90;;;9.00;99.90;;;;;;4954492;28;20039;-91
2023/02/13 11:54:41;;;;;;;45.83;38.75;;;9.20;99.90;;;;;;4954355;28;20034;-90
2023/02/13 11:57:18;;;;;;;40.97;36.25;;;9.40;99.90;;;;;;4954099;28;20031;-88
2023/02/13 11:59:45;;;;;;;38.50;34.13;;;9.60;99.90;;;;;;4956953;28;20078;-92
2023/02/13 12:02:30;;;;;;;45.92;35.13;;;9.70;99.90;;;;;;4952840;28;20046;-88
2023/02/13 12:05:20;;;;;;;41.45;35.50;;;9.70;99.90;;;;;;4951723;28;20046;-89
2023/02/13 12:07:47;;;;;;;40.97;36.45;;;10.00;99.90;;;;;;4972839;28;20046;-90
2023/02/13 12:10:27;;;;;;;37.15;32.33;;;10.20;99.90;;;;;;4939435;28;20058;-89
2023/02/13 12:13:13;;;;;;;41.13;35.65;;;10.10;99.90;;;;;;4939268;28;20047;-88
2023/02/13 12:15:39;;;;;;;46.00;36.20;;;10.10;99.90;;;;;;4942498;28;20038;-85
2023/02/13 12:18:41;;;;;;;45.08;36.53;;;10.10;99.90;;;;;;4922182;28;20038;-88
2023/02/13 12:21:25;;;;;;;39.28;34.40;;;10.30;99.90;;;;;;4916919;29;20071;-88
2023/02/13 12:24:09;;;;;;;38.47;34.38;;;10.40;99.90;;;;;;4913388;29;20064;-88
2023/02/13 12:26:41;;;;;;;38.78;31.50;;;10.60;99.90;;;;;;4909856;29;20047;-85
2023/02/13 12:29:34;;;;;;;39.28;35.00;;;10.80;99.90;;;;;;4894451;29;20044;-87
2023/02/13 12:32:06;;;;;;;38.53;33.10;;;10.90;99.90;;;;;;4913529;28;20079;-87
2023/02/13 12:34:50;;;;;;;37.60;33.67;;;11.00;99.90;;;;;;4913181;29;20040;-86
2023/02/13 12:37:40;;;;;;;38.75;34.45;;;11.20;99.90;;;;;;4898037;29;20039;-86
2023/02/13 12:40:12;;;;;;;40.88;34.83;;;11.20;99.90;;;;;;4912102;29;20418;-87
2023/02/13 12:42:50;;;;;;;39.00;34.80;;;11.20;99.90;;;;;;4913379;29;20059;-87
2023/02/13 12:45:21;;;;;;;36.28;32.22;;;11.40;99.90;;;;;;4896346;28;20047;-87
2023/02/13 12:47:59;;;;;;;37.83;33.83;;;11.60;99.90;;;;;;4896522;29;20051;-87
2023/02/13 12:50:45;;;;;;;39.85;35.85;;;11.70;99.90;;;;;;4914773;29;20770;-86
2023/02/13 12:53:36;;;;;;;42.80;38.22;;;11.90;99.90;;;;;;4901435;29;20032;-87
2023/02/13 12:56:23;;;;;;;38.70;34.83;;;12.10;99.90;;;;;;4967664;28;20039;-87
2023/02/13 12:59:01;;;;;;;40.65;36.55;;;12.20;99.90;;;;;;4959362;28;20396;-86
2023/02/13 13:01:56;;;;;;;43.00;36.75;;;12.30;99.90;;;;;;4974497;28;20030;-87
2023/02/13 13:04:39;;;;;;;38.28;34.38;;;12.20;99.90;;;;;;4954951;29;20417;-87
2023/02/13 13:07:15;;;;;;;39.20;35.10;;;12.20;99.90;;;;;;4957666;29;20023;-87
2023/02/13 13:09:59;;;;;;;36.63;32.95;;;12.20;99.90;;;;;;4956008;28;20039;-87
2023/02/13 13:13:04;;;;;;;35.28;31.70;;;12.40;99.90;;;;;;4974046;28;20043;-87
2023/02/13 13:15:52;;;;;;;34.60;31.05;;;12.50;99.90;;;;;;4915536;29;20563;-87
2023/02/13 13:18:32;;;;;;;35.38;31.45;;;12.60;99.90;;;;;;4916308;29;20040;-87
2023/02/13 13:21:38;;;;;;;36.50;32.80;;;12.80;99.90;;;;;;4916558;29;20107;-88
2023/02/13 13:24:17;;;;;;;36.22;32.33;;;13.00;99.90;;;;;;4896869;29;20075;-86
2023/02/13 13:26:48;;;;;;;35.78;32.08;;;13.10;99.90;;;;;;4881729;29;20398;-87
2023/02/13 13:30:06;;;;;;;35.78;31.80;;;13.00;99.90;;;;;;4896031;29;20075;-87
2023/02/13 13:32:34;;;;;;;34.72;31.15;;;13.00;99.90;;;;;;4876152;29;20625;-87
2023/02/13 13:35:00;;;;;;;35.40;32.08;;;13.20;99.90;;;;;;4863483;29;20049;-87
2023/02/13 13:38:01;;;;;;;36.17;32.47;;;13.40;99.90;;;;;;4862669;29;20047;-88
2023/02/13 13:40:48;;;;;;;34.03;30.95;;;13.60;99.90;;;;;;4865390;29;20045;-87
2023/02/13 13:43:36;;;;;;;34.13;30.85;;;13.60;99.90;;;;;;4879796;29;20574;-87
2023/02/13 13:46:13;;;;;;;36.30;32.83;;;13.60;99.90;;;;;;4864927;29;20044;-88